sensor_id;sensor_type;location;lat;lon;timestamp;pressure;altitude;pressure_sealevel;temperature;humidity
50065;BME280;64524;47.848;-122.338;2023-01-13T00:16:42;100882.70;;;11.19;100.00
50065;BME280;64524;47.848;-122.338;2023-01-13T00:36:52;100881.48;;;11.20;100.00
50065;BME280;64524;47.848;-122.338;2023-01-13T00:42:55;100865.70;;;11.20;100.00
50065;BME280;64524;47.848;-122.338;2023-01-13T00:49:27;100879.36;;;11.17;100.00
50065;BME280;64524;47.848;-122.338;2023-01-13T00:53:22;100873.81;;;11.16;100.00
50065;BME280;64524;47.848;-122.338;2023-01-13T00:59:40;100867.42;;;11.17;100.00
50065;BME280;64524;47.848;-122.338;2023-01-13T01:06:26;100871.55;;;11.16;100.00
50065;BME280;64524;47.848;-122.338;2023-01-13T01:18:57;100880.71;;;11.11;100.00
50065;BME280;64524;47.848;-122.338;2023-01-13T01:39:31;100890.65;;;11.17;100.00
50065;BME280;64524;47.848;-122.338;2023-01-13T01:42:15;100879.41;;;11.19;100.00
50065;BME280;64524;47.848;-122.338;2023-01-13T01:55:58;100864.90;;;11.09;100.00
50065;BME280;64524;47.848;-122.338;2023-01-13T01:58:58;100865.70;;;11.04;100.00
50065;BME280;64524;47.848;-122.338;2023-01-13T02:11:30;100859.94;;;10.87;100.00
50065;BME280;64524;47.848;-122.338;2023-01-13T02:38:07;100855.89;;;10.83;100.00
50065;BME280;64524;47.848;-122.338;2023-01-13T02:44:32;100842.71;;;10.82;100.00
50065;BME280;64524;47.848;-122.338;2023-01-13T02:47:35;100842.17;;;10.80;100.00
50065;BME280;64524;47.848;-122.338;2023-01-13T02:53:59;100839.68;;;10.75;100.00
50065;BME280;64524;47.848;-122.338;2023-01-13T02:56:49;100844.69;;;10.73;100.00
50065;BME280;64524;47.848;-122.338;2023-01-13T03:03:30;100861.83;;;10.73;100.00
50065;BME280;64524;47.848;-122.338;2023-01-13T03:22:59;100801.59;;;10.63;100.00
50065;BME280;64524;47.848;-122.338;2023-01-13T03:25:50;100808.84;;;10.61;100.00
50065;BME280;64524;47.848;-122.338;2023-01-13T03:28:41;100808.28;;;10.58;100.00
50065;BME280;64524;47.848;-122.338;2023-01-13T03:31:21;100822.45;;;10.56;100.00
50065;BME280;64524;47.848;-122.338;2023-01-13T03:34:02;100827.98;;;10.55;100.00
50065;BME280;64524;47.848;-122.338;2023-01-13T03:36:52;100835.82;;;10.58;100.00
50065;BME280;64524;47.848;-122.338;2023-01-13T03:39:53;100848.15;;;10.61;100.00
50065;BME280;64524;47.848;-122.338;2023-01-13T03:42:49;100828.82;;;10.67;100.00
50065;BME280;64524;47.848;-122.338;2023-01-13T03:46:07;100836.34;;;10.71;100.00
50065;BME280;64524;47.848;-122.338;2023-01-13T03:58:16;100830.48;;;10.87;100.00
50065;BME280;64524;47.848;-122.338;2023-01-13T04:11:45;100841.60;;;11.03;100.00
50065;BME280;64524;47.848;-122.338;2023-01-13T04:21:20;100797.80;;;11.08;100.00
50065;BME280;64524;47.848;-122.338;2023-01-13T04:24:12;100788.79;;;11.08;100.00
50065;BME280;64524;47.848;-122.338;2023-01-13T04:27:02;100781.33;;;11.07;100.00
50065;BME280;64524;47.848;-122.338;2023-01-13T04:36:13;100781.16;;;11.08;100.00
50065;BME280;64524;47.848;-122.338;2023-01-13T05:13:56;100793.61;;;11.05;100.00
50065;BME280;64524;47.848;-122.338;2023-01-13T05:24:21;100834.56;;;11.10;100.00
50065;BME280;64524;47.848;-122.338;2023-01-13T05:27:24;100847.09;;;11.15;100.00
50065;BME280;64524;47.848;-122.338;2023-01-13T05:30:36;100848.02;;;11.19;100.00
50065;BME280;64524;47.848;-122.338;2023-01-13T05:33:49;100857.42;;;11.23;100.00
50065;BME280;64524;47.848;-122.338;2023-01-13T05:36:53;100881.39;;;11.26;100.00
50065;BME280;64524;47.848;-122.338;2023-01-13T05:40:02;100881.09;;;11.30;100.00
50065;BME280;64524;47.848;-122.338;2023-01-13T05:43:10;100880.77;;;11.33;100.00
50065;BME280;64524;47.848;-122.338;2023-01-13T05:49:18;100876.34;;;11.40;100.00
50065;BME280;64524;47.848;-122.338;2023-01-13T05:51:47;100885.21;;;11.42;100.00
50065;BME280;64524;47.848;-122.338;2023-01-13T06:06:53;100877.48;;;11.48;100.00
50065;BME280;64524;47.848;-122.338;2023-01-13T06:09:33;100879.73;;;11.47;100.00
50065;BME280;64524;47.848;-122.338;2023-01-13T06:12:30;100873.98;;;11.46;100.00
50065;BME280;64524;47.848;-122.338;2023-01-13T06:15:35;100876.04;;;11.44;100.00
50065;BME280;64524;47.848;-122.338;2023-01-13T06:18:26;100870.29;;;11.42;100.00
50065;BME280;64524;47.848;-122.338;2023-01-13T06:21:08;100859.50;;;11.39;100.00
50065;BME280;64524;47.848;-122.338;2023-01-13T06:23:50;100851.00;;;11.38;100.00
50065;BME280;64524;47.848;-122.338;2023-01-13T06:26:22;100841.80;;;11.36;100.00
50065;BME280;64524;47.848;-122.338;2023-01-13T06:28:54;100834.83;;;11.33;100.00
50065;BME280;64524;47.848;-122.338;2023-01-13T06:31:24;100827.70;;;11.32;100.00
50065;BME280;64524;47.848;-122.338;2023-01-13T06:34:02;100821.10;;;11.31;100.00
50065;BME280;64524;47.848;-122.338;2023-01-13T06:36:53;100823.69;;;11.30;100.00
50065;BME280;64524;47.848;-122.338;2023-01-13T06:39:24;100829.23;;;11.29;100.00
50065;BME280;64524;47.848;-122.338;2023-01-13T06:46:18;100829.23;;;11.30;100.00
50065;BME280;64524;47.848;-122.338;2023-01-13T06:48:40;100822.81;;;11.29;100.00
50065;BME280;64524;47.848;-122.338;2023-01-13T06:51:29;100828.88;;;11.28;100.00
50065;BME280;64524;47.848;-122.338;2023-01-13T06:54:17;100821.05;;;11.26;100.00
50065;BME280;64524;47.848;-122.338;2023-01-13T06:56:48;100819.30;;;11.25;100.00
50065;BME280;64524;47.848;-122.338;2023-01-13T06:59:23;100823.27;;;11.23;100.00
50065;BME280;64524;47.848;-122.338;2023-01-13T07:02:23;100831.23;;;11.21;100.00
50065;BME280;64524;47.848;-122.338;2023-01-13T07:05:06;100834.33;;;11.19;100.00
50065;BME280;64524;47.848;-122.338;2023-01-13T07:07:57;100835.37;;;11.19;100.00
50065;BME280;64524;47.848;-122.338;2023-01-13T07:10:29;100837.61;;;11.19;100.00
50065;BME280;64524;47.848;-122.338;2023-01-13T07:13:02;100840.40;;;11.20;100.00
50065;BME280;64524;47.848;-122.338;2023-01-13T07:18:24;100846.66;;;11.22;100.00
50065;BME280;64524;47.848;-122.338;2023-01-13T07:21:08;100846.33;;;11.23;100.00
50065;BME280;64524;47.848;-122.338;2023-01-13T07:23:49;100841.80;;;11.22;100.00
50065;BME280;64524;47.848;-122.338;2023-01-13T07:26:24;100837.30;;;11.21;100.00
50065;BME280;64524;47.848;-122.338;2023-01-13T07:28:56;100828.62;;;11.20;100.00
50065;BME280;64524;47.848;-122.338;2023-01-13T07:31:25;100818.90;;;11.19;100.00
50065;BME280;64524;47.848;-122.338;2023-01-13T07:33:58;100811.95;;;11.19;100.00
50065;BME280;64524;47.848;-122.338;2023-01-13T07:36:29;100805.50;;;11.15;100.00
50065;BME280;64524;47.848;-122.338;2023-01-13T07:38:58;100797.14;;;11.12;100.00
50065;BME280;64524;47.848;-122.338;2023-01-13T07:41:30;100784.27;;;11.08;100.00
50065;BME280;64524;47.848;-122.338;2023-01-13T07:44:20;100778.70;;;11.05;100.00
50065;BME280;64524;47.848;-122.338;2023-01-13T07:46:52;100763.07;;;11.03;100.00
50065;BME280;64524;47.848;-122.338;2023-01-13T07:49:28;100750.55;;;10.99;100.00
50065;BME280;64524;47.848;-122.338;2023-01-13T07:52:01;100741.50;;;10.95;100.00
50065;BME280;64524;47.848;-122.338;2023-01-13T07:54:38;100734.36;;;10.92;100.00
50065;BME280;64524;47.848;-122.338;2023-01-13T07:57:08;100724.64;;;10.90;100.00
50065;BME280;64524;47.848;-122.338;2023-01-13T07:59:43;100716.63;;;10.86;100.00
50065;BME280;64524;47.848;-122.338;2023-01-13T08:02:22;100702.55;;;10.83;100.00
50065;BME280;64524;47.848;-122.338;2023-01-13T08:08:03;100692.43;;;10.76;100.00
50065;BME280;64524;47.848;-122.338;2023-01-13T08:10:42;100689.12;;;10.73;100.00
50065;BME280;64524;47.848;-122.338;2023-01-13T08:13:18;100683.20;;;10.71;100.00
50065;BME280;64524;47.848;-122.338;2023-01-13T08:16:12;100671.23;;;10.69;100.00
50065;BME280;64524;47.848;-122.338;2023-01-13T08:19:02;100656.15;;;10.68;100.00
50065;BME280;64524;47.848;-122.338;2023-01-13T08:21:34;100650.40;;;10.66;100.00
50065;BME280;64524;47.848;-122.338;2023-01-13T08:24:13;100645.19;;;10.64;100.00
50065;BME280;64524;47.848;-122.338;2023-01-13T08:26:51;100640.14;;;10.63;100.00
50065;BME280;64524;47.848;-122.338;2023-01-13T08:29:21;100642.05;;;10.63;100.00
50065;BME280;64524;47.848;-122.338;2023-01-13T08:31:50;100644.65;;;10.63;100.00
50065;BME280;64524;47.848;-122.338;2023-01-13T08:34:21;100644.48;;;10.63;100.00
50065;BME280;64524;47.848;-122.338;2023-01-13T08:39:49;100634.11;;;10.65;100.00
50065;BME280;64524;47.848;-122.338;2023-01-13T08:45:26;100622.02;;;10.69;100.00
50065;BME280;64524;47.848;-122.338;2023-01-13T08:47:59;100622.73;;;10.71;100.00
50065;BME280;64524;47.848;-122.338;2023-01-13T08:50:28;100636.27;;;10.72;100.00
50065;BME280;64524;47.848;-122.338;2023-01-13T08:53:02;100638.00;;;10.74;100.00
50065;BME280;64524;47.848;-122.338;2023-01-13T08:56:28;100642.52;;;10.75;100.00
50065;BME280;64524;47.848;-122.338;2023-01-13T09:02:21;100677.08;;;10.81;100.00
50065;BME280;64524;47.848;-122.338;2023-01-13T09:05:03;100682.13;;;10.84;100.00
50065;BME280;64524;47.848;-122.338;2023-01-13T09:13:59;100711.14;;;10.92;100.00
50065;BME280;64524;47.848;-122.338;2023-01-13T09:16:29;100710.64;;;10.94;100.00
50065;BME280;64524;47.848;-122.338;2023-01-13T09:24:45;100673.90;;;10.95;100.00
50065;BME280;64524;47.848;-122.338;2023-01-13T09:27:37;100667.99;;;10.92;100.00
50065;BME280;64524;47.848;-122.338;2023-01-13T09:30:28;100667.80;;;10.91;100.00
50065;BME280;64524;47.848;-122.338;2023-01-13T09:33:13;100659.13;;;10.90;100.00
50065;BME280;64524;47.848;-122.338;2023-01-13T09:36:00;100673.32;;;10.88;100.00
50065;BME280;64524;47.848;-122.338;2023-01-13T09:38:32;100666.22;;;10.88;100.00
50065;BME280;64524;47.848;-122.338;2023-01-13T09:41:24;100652.00;;;10.87;100.00
50065;BME280;64524;47.848;-122.338;2023-01-13T09:48:31;100635.03;;;10.89;100.00
50065;BME280;64524;47.848;-122.338;2023-01-13T09:57:20;100651.74;;;10.97;100.00
50065;BME280;64524;47.848;-122.338;2023-01-13T10:05:36;100657.69;;;11.03;100.00
50065;BME280;64524;47.848;-122.338;2023-01-13T10:11:02;100657.02;;;11.07;100.00
50065;BME280;64524;47.848;-122.338;2023-01-13T10:17:38;100669.89;;;11.10;100.00
50065;BME280;64524;47.848;-122.338;2023-01-13T10:20:27;100674.23;;;11.10;100.00
50065;BME280;64524;47.848;-122.338;2023-01-13T10:23:38;100673.88;;;11.10;100.00
50065;BME280;64524;47.848;-122.338;2023-01-13T10:26:58;100668.51;;;11.10;100.00
50065;BME280;64524;47.848;-122.338;2023-01-13T10:29:26;100667.13;;;11.10;100.00
50065;BME280;64524;47.848;-122.338;2023-01-13T10:31:59;100656.01;;;11.09;100.00
50065;BME280;64524;47.848;-122.338;2023-01-13T10:34:59;100638.15;;;11.08;100.00
50065;BME280;64524;47.848;-122.338;2023-01-13T10:37:32;100629.13;;;11.08;100.00
50065;BME280;64524;47.848;-122.338;2023-01-13T10:40:03;100624.09;;;11.06;100.00
50065;BME280;64524;47.848;-122.338;2023-01-13T10:42:47;100618.35;;;11.04;100.00
50065;BME280;64524;47.848;-122.338;2023-01-13T10:45:23;100615.05;;;11.04;100.00
50065;BME280;64524;47.848;-122.338;2023-01-13T10:48:34;100608.81;;;11.04;100.00
50065;BME280;64524;47.848;-122.338;2023-01-13T10:54:30;100606.55;;;11.02;100.00
50065;BME280;64524;47.848;-122.338;2023-01-13T10:57:23;100602.73;;;11.02;100.00
50065;BME280;64524;47.848;-122.338;2023-01-13T11:00:00;100595.63;;;11.01;100.00
50065;BME280;64524;47.848;-122.338;2023-01-13T11:02:32;100593.54;;;11.01;100.00
50065;BME280;64524;47.848;-122.338;2023-01-13T11:05:23;100596.66;;;11.01;100.00
50065;BME280;64524;47.848;-122.338;2023-01-13T11:07:52;100597.88;;;11.02;100.00
50065;BME280;64524;47.848;-122.338;2023-01-13T11:10:44;100615.38;;;11.02;100.00
50065;BME280;64524;47.848;-122.338;2023-01-13T11:13:39;100624.73;;;11.01;100.00
50065;BME280;64524;47.848;-122.338;2023-01-13T11:16:33;100625.24;;;11.00;100.00
50065;BME280;64524;47.848;-122.338;2023-01-13T11:19:14;100629.23;;;11.00;100.00
50065;BME280;64524;47.848;-122.338;2023-01-13T11:22:35;100637.90;;;10.99;100.00
50065;BME280;64524;47.848;-122.338;2023-01-13T11:25:47;100639.79;;;10.98;100.00
50065;BME280;64524;47.848;-122.338;2023-01-13T11:32:22;100649.60;;;10.91;100.00
50065;BME280;64524;47.848;-122.338;2023-01-13T11:35:00;100650.80;;;10.88;100.00
50065;BME280;64524;47.848;-122.338;2023-01-13T11:37:52;100649.89;;;10.85;100.00
50065;BME280;64524;47.848;-122.338;2023-01-13T11:44:09;100674.49;;;10.84;100.00
50065;BME280;64524;47.848;-122.338;2023-01-13T11:46:40;100674.83;;;10.83;100.00
50065;BME280;64524;47.848;-122.338;2023-01-13T11:49:30;100667.55;;;10.82;100.00
50065;BME280;64524;47.848;-122.338;2023-01-13T11:55:24;100660.96;;;10.83;100.00
50065;BME280;64524;47.848;-122.338;2023-01-13T11:58:20;100633.21;;;10.80;100.00
50065;BME280;64524;47.848;-122.338;2023-01-13T12:06:38;100617.91;;;10.74;100.00
50065;BME280;64524;47.848;-122.338;2023-01-13T12:18:53;100569.47;;;10.62;100.00
50065;BME280;64524;47.848;-122.338;2023-01-13T12:21:29;100564.23;;;10.59;100.00
50065;BME280;64524;47.848;-122.338;2023-01-13T12:24:14;100563.70;;;10.56;100.00
50065;BME280;64524;47.848;-122.338;2023-01-13T12:28:01;100571.13;;;10.54;100.00
50065;BME280;64524;47.848;-122.338;2023-01-13T12:30:21;100575.27;;;10.53;100.00
50065;BME280;64524;47.848;-122.338;2023-01-13T12:32:59;100577.17;;;10.51;100.00
50065;BME280;64524;47.848;-122.338;2023-01-13T12:36:04;100580.44;;;10.50;100.00
50065;BME280;64524;47.848;-122.338;2023-01-13T12:38:44;100583.19;;;10.47;100.00
50065;BME280;64524;47.848;-122.338;2023-01-13T12:43:55;100586.63;;;10.47;100.00
50065;BME280;64524;47.848;-122.338;2023-01-13T12:46:50;100574.53;;;10.49;100.00
50065;BME280;64524;47.848;-122.338;2023-01-13T12:49:33;100572.83;;;10.51;100.00
50065;BME280;64524;47.848;-122.338;2023-01-13T12:52:19;100581.84;;;10.51;100.00
50065;BME280;64524;47.848;-122.338;2023-01-13T12:57:28;100572.46;;;10.49;100.00
50065;BME280;64524;47.848;-122.338;2023-01-13T13:02:39;100573.11;;;10.45;100.00
50065;BME280;64524;47.848;-122.338;2023-01-13T13:14:01;100517.55;;;10.48;100.00
50065;BME280;64524;47.848;-122.338;2023-01-13T13:16:51;100509.06;;;10.47;100.00
50065;BME280;64524;47.848;-122.338;2023-01-13T13:30:29;100517.13;;;10.58;100.00
50065;BME280;64524;47.848;-122.338;2023-01-13T13:39:25;100496.25;;;10.67;100.00
50065;BME280;64524;47.848;-122.338;2023-01-13T13:45:29;100506.15;;;10.71;100.00
50065;BME280;64524;47.848;-122.338;2023-01-13T13:48:24;100503.59;;;10.76;100.00
50065;BME280;64524;47.848;-122.338;2023-01-13T13:51:15;100508.11;;;10.79;100.00
50065;BME280;64524;47.848;-122.338;2023-01-13T13:53:46;100510.59;;;10.85;100.00
50065;BME280;64524;47.848;-122.338;2023-01-13T13:56:21;100505.23;;;10.88;100.00
50065;BME280;64524;47.848;-122.338;2023-01-13T13:58:53;100508.70;;;10.89;100.00
50065;BME280;64524;47.848;-122.338;2023-01-13T14:01:42;100509.58;;;10.90;100.00
50065;BME280;64524;47.848;-122.338;2023-01-13T14:04:21;100516.02;;;10.92;100.00
50065;BME280;64524;47.848;-122.338;2023-01-13T14:06:58;100509.27;;;10.94;100.00
50065;BME280;64524;47.848;-122.338;2023-01-13T14:09:43;100517.23;;;10.95;100.00
50065;BME280;64524;47.848;-122.338;2023-01-13T14:12:36;100508.77;;;10.99;100.00
50065;BME280;64524;47.848;-122.338;2023-01-13T14:15:23;100509.31;;;11.01;100.00
50065;BME280;64524;47.848;-122.338;2023-01-13T14:17:55;100516.42;;;11.02;100.00
50065;BME280;64524;47.848;-122.338;2023-01-13T14:20:24;100519.02;;;11.02;100.00
50065;BME280;64524;47.848;-122.338;2023-01-13T14:22:55;100520.23;;;11.00;100.00
50065;BME280;64524;47.848;-122.338;2023-01-13T14:25:48;100525.25;;;10.99;100.00
50065;BME280;64524;47.848;-122.338;2023-01-13T14:31:46;100522.30;;;10.99;100.00
50065;BME280;64524;47.848;-122.338;2023-01-13T14:38:14;100510.54;;;11.03;100.00
50065;BME280;64524;47.848;-122.338;2023-01-13T14:43:59;100497.23;;;11.07;100.00
50065;BME280;64524;47.848;-122.338;2023-01-13T14:46:43;100494.12;;;11.09;100.00
50065;BME280;64524;47.848;-122.338;2023-01-13T14:52:34;100497.60;;;11.12;100.00
50065;BME280;64524;47.848;-122.338;2023-01-13T14:58:39;100492.05;;;11.12;100.00
50065;BME280;64524;47.848;-122.338;2023-01-13T15:01:32;100496.73;;;11.12;100.00
50065;BME280;64524;47.848;-122.338;2023-01-13T15:07:46;100488.77;;;11.13;100.00
50065;BME280;64524;47.848;-122.338;2023-01-13T15:13:56;100484.09;;;11.13;100.00
50065;BME280;64524;47.848;-122.338;2023-01-13T15:23:06;100487.04;;;11.14;100.00
50065;BME280;64524;47.848;-122.338;2023-01-13T15:26:08;100476.64;;;11.15;100.00
50065;BME280;64524;47.848;-122.338;2023-01-13T15:32:01;100476.84;;;11.18;100.00
50065;BME280;64524;47.848;-122.338;2023-01-13T15:34:47;100470.93;;;11.18;100.00
50065;BME280;64524;47.848;-122.338;2023-01-13T15:37:40;100466.08;;;11.18;100.00
50065;BME280;64524;47.848;-122.338;2023-01-13T15:40:31;100452.90;;;11.18;100.00
50065;BME280;64524;47.848;-122.338;2023-01-13T15:43:04;100450.98;;;11.18;100.00
50065;BME280;64524;47.848;-122.338;2023-01-13T15:46:34;100444.22;;;11.16;100.00
50065;BME280;64524;47.848;-122.338;2023-01-13T15:50:01;100443.36;;;11.16;100.00
50065;BME280;64524;47.848;-122.338;2023-01-13T15:52:50;100448.39;;;11.17;100.00
50065;BME280;64524;47.848;-122.338;2023-01-13T15:55:19;100448.22;;;11.18;100.00
50065;BME280;64524;47.848;-122.338;2023-01-13T15:57:52;100454.46;;;11.18;100.00
50065;BME280;64524;47.848;-122.338;2023-01-13T16:00:24;100451.52;;;11.18;100.00
50065;BME280;64524;47.848;-122.338;2023-01-13T16:03:16;100448.40;;;11.19;100.00
50065;BME280;64524;47.848;-122.338;2023-01-13T16:05:49;100456.89;;;11.20;100.00
50065;BME280;64524;47.848;-122.338;2023-01-13T16:08:28;100466.79;;;11.20;100.00
50065;BME280;64524;47.848;-122.338;2023-01-13T16:21:11;100475.65;;;11.25;100.00
50065;BME280;64524;47.848;-122.338;2023-01-13T16:27:32;100479.78;;;11.19;100.00
50065;BME280;64524;47.848;-122.338;2023-01-13T16:30:09;100479.42;;;11.19;100.00
50065;BME280;64524;47.848;-122.338;2023-01-13T16:33:23;100477.88;;;11.18;100.00
50065;BME280;64524;47.848;-122.338;2023-01-13T16:35:55;100481.33;;;11.18;100.00
50065;BME280;64524;47.848;-122.338;2023-01-13T16:41:27;100477.86;;;11.19;100.00
50065;BME280;64524;47.848;-122.338;2023-01-13T16:43:56;100478.74;;;11.21;100.00
50065;BME280;64524;47.848;-122.338;2023-01-13T16:46:27;100485.01;;;11.23;100.00
50065;BME280;64524;47.848;-122.338;2023-01-13T16:49:00;100490.91;;;11.24;100.00
50065;BME280;64524;47.848;-122.338;2023-01-13T16:51:29;100496.29;;;11.26;100.00
50065;BME280;64524;47.848;-122.338;2023-01-13T16:54:16;100491.45;;;11.28;100.00
50065;BME280;64524;47.848;-122.338;2023-01-13T16:56:45;100492.33;;;11.28;100.00
50065;BME280;64524;47.848;-122.338;2023-01-13T16:59:27;100493.53;;;11.29;100.00
50065;BME280;64524;47.848;-122.338;2023-01-13T17:04:53;100497.71;;;11.33;100.00
50065;BME280;64524;47.848;-122.338;2023-01-13T17:07:31;100495.98;;;11.33;100.00
50065;BME280;64524;47.848;-122.338;2023-01-13T17:10:04;100494.76;;;11.33;100.00
50065;BME280;64524;47.848;-122.338;2023-01-13T17:15:44;100509.49;;;11.30;100.00
50065;BME280;64524;47.848;-122.338;2023-01-13T17:21:34;100514.85;;;11.27;100.00
50065;BME280;64524;47.848;-122.338;2023-01-13T17:24:02;100522.66;;;11.28;100.00
50065;BME280;64524;47.848;-122.338;2023-01-13T17:26:43;100527.17;;;11.28;100.00
50065;BME280;64524;47.848;-122.338;2023-01-13T17:29:29;100537.91;;;11.27;100.00
50065;BME280;64524;47.848;-122.338;2023-01-13T17:32:29;100554.21;;;11.27;100.00
50065;BME280;64524;47.848;-122.338;2023-01-13T17:34:57;100558.89;;;11.29;100.00
50065;BME280;64524;47.848;-122.338;2023-01-13T17:38:27;100558.22;;;11.31;100.00
50065;BME280;64524;47.848;-122.338;2023-01-13T17:54:34;100570.10;;;11.44;100.00
50065;BME280;64524;47.848;-122.338;2023-01-13T17:57:44;100575.29;;;11.44;100.00
50065;BME280;64524;47.848;-122.338;2023-01-13T18:00:24;100578.59;;;11.44;100.00
50065;BME280;64524;47.848;-122.338;2023-01-13T18:06:48;100578.05;;;11.42;100.00
50065;BME280;64524;47.848;-122.338;2023-01-13T18:09:20;100583.26;;;11.40;100.00
50065;BME280;64524;47.848;-122.338;2023-01-13T18:11:59;100591.05;;;11.40;100.00
50065;BME280;64524;47.848;-122.338;2023-01-13T18:14:32;100596.60;;;11.40;100.00
50065;BME280;64524;47.848;-122.338;2023-01-13T18:17:21;100594.70;;;11.41;100.00
50065;BME280;64524;47.848;-122.338;2023-01-13T18:19:53;100595.77;;;11.44;100.00
50065;BME280;64524;47.848;-122.338;2023-01-13T18:23:04;100595.59;;;11.45;100.00
50065;BME280;64524;47.848;-122.338;2023-01-13T18:26:52;100598.05;;;11.49;100.00
50065;BME280;64524;47.848;-122.338;2023-01-13T18:29:20;100595.30;;;11.54;100.00
50065;BME280;64524;47.848;-122.338;2023-01-13T18:35:58;100596.20;;;11.59;100.00
50065;BME280;64524;47.848;-122.338;2023-01-13T18:38:47;100594.48;;;11.61;100.00
50065;BME280;64524;47.848;-122.338;2023-01-13T18:41:56;100594.65;;;11.64;100.00
50065;BME280;64524;47.848;-122.338;2023-01-13T18:45:07;100595.88;;;11.64;100.00
50065;BME280;64524;47.848;-122.338;2023-01-13T18:51:26;100588.79;;;11.67;100.00
50065;BME280;64524;47.848;-122.338;2023-01-13T19:20:33;100560.14;;;11.96;100.00
50065;BME280;64524;47.848;-122.338;2023-01-13T19:23:07;100558.75;;;11.99;100.00
50065;BME280;64524;47.848;-122.338;2023-01-13T19:25:43;100560.34;;;12.02;100.00
50065;BME280;64524;47.848;-122.338;2023-01-13T19:31:34;100547.52;;;12.07;100.00
50065;BME280;64524;47.848;-122.338;2023-01-13T19:44:27;100540.41;;;12.16;100.00
50065;BME280;64524;47.848;-122.338;2023-01-13T19:47:14;100534.85;;;12.18;100.00
50065;BME280;64524;47.848;-122.338;2023-01-13T20:10:00;100547.91;;;12.33;100.00
50065;BME280;64524;47.848;-122.338;2023-01-13T20:23:05;100513.52;;;12.34;100.00
50065;BME280;64524;47.848;-122.338;2023-01-13T20:28:34;100504.85;;;12.38;100.00
50065;BME280;64524;47.848;-122.338;2023-01-13T20:32:04;100498.95;;;12.39;100.00
50065;BME280;64524;47.848;-122.338;2023-01-13T20:34:51;100494.08;;;12.41;100.00
50065;BME280;64524;47.848;-122.338;2023-01-13T20:37:20;100490.61;;;12.42;100.00
50065;BME280;64524;47.848;-122.338;2023-01-13T20:56:13;100446.32;;;12.47;100.00
50065;BME280;64524;47.848;-122.338;2023-01-13T20:59:05;100450.66;;;12.46;100.00
50065;BME280;64524;47.848;-122.338;2023-01-13T21:01:47;100456.38;;;12.46;100.00
50065;BME280;64524;47.848;-122.338;2023-01-13T21:04:21;100447.18;;;12.45;100.00
50065;BME280;64524;47.848;-122.338;2023-01-13T21:06:51;100442.31;;;12.45;100.00
50065;BME280;64524;47.848;-122.338;2023-01-13T21:09:23;100439.55;;;12.45;100.00
50065;BME280;64524;47.848;-122.338;2023-01-13T21:11:53;100431.55;;;12.43;100.00
50065;BME280;64524;47.848;-122.338;2023-01-13T21:14:40;100435.20;;;12.41;100.00
50065;BME280;64524;47.848;-122.338;2023-01-13T21:17:31;100433.13;;;12.40;100.00
50065;BME280;64524;47.848;-122.338;2023-01-13T21:20:17;100425.81;;;12.38;100.00
50065;BME280;64524;47.848;-122.338;2023-01-13T21:22:47;100426.68;;;12.36;100.00
50065;BME280;64524;47.848;-122.338;2023-01-13T21:25:18;100424.79;;;12.34;100.00
50065;BME280;64524;47.848;-122.338;2023-01-13T21:27:47;100421.31;;;12.33;100.00
50065;BME280;64524;47.848;-122.338;2023-01-13T21:30:19;100419.74;;;12.30;100.00
50065;BME280;64524;47.848;-122.338;2023-01-13T21:32:48;100418.52;;;12.27;100.00
50065;BME280;64524;47.848;-122.338;2023-01-13T21:35:16;100412.80;;;12.22;100.00
50065;BME280;64524;47.848;-122.338;2023-01-13T21:37:45;100413.84;;;12.20;100.00
50065;BME280;64524;47.848;-122.338;2023-01-13T21:40:19;100411.23;;;12.19;100.00
50065;BME280;64524;47.848;-122.338;2023-01-13T21:42:47;100404.45;;;12.17;100.00
50065;BME280;64524;47.848;-122.338;2023-01-13T21:45:37;100398.22;;;12.16;100.00
50065;BME280;64524;47.848;-122.338;2023-01-13T21:48:26;100393.00;;;12.13;100.00
50065;BME280;64524;47.848;-122.338;2023-01-13T21:50:58;100390.40;;;12.11;100.00
50065;BME280;64524;47.848;-122.338;2023-01-13T21:53:28;100387.27;;;12.08;100.00
50065;BME280;64524;47.848;-122.338;2023-01-13T21:55:57;100388.48;;;12.06;100.00
50065;BME280;64524;47.848;-122.338;2023-01-13T21:58:26;100388.30;;;12.05;100.00
50065;BME280;64524;47.848;-122.338;2023-01-13T22:00:55;100384.32;;;12.05;100.00
50065;BME280;64524;47.848;-122.338;2023-01-13T22:03:29;100392.13;;;12.05;100.00
50065;BME280;64524;47.848;-122.338;2023-01-13T22:06:18;100394.05;;;12.06;100.00
50065;BME280;64524;47.848;-122.338;2023-01-13T22:08:47;100397.52;;;12.08;100.00
50065;BME280;64524;47.848;-122.338;2023-01-13T22:11:16;100394.55;;;12.09;100.00
50065;BME280;64524;47.848;-122.338;2023-01-13T22:13:48;100389.00;;;12.09;100.00
50065;BME280;64524;47.848;-122.338;2023-01-13T22:27:36;100381.54;;;12.04;100.00
50065;BME280;64524;47.848;-122.338;2023-01-13T22:48:18;100387.44;;;11.99;100.00
50065;BME280;64524;47.848;-122.338;2023-01-13T23:32:53;100357.75;;;12.09;100.00
50065;BME280;64524;47.848;-122.338;2023-01-13T23:35:22;100357.41;;;12.08;100.00